Time;durP1;ratioP1;P1;durP2;ratioP2;P2;SDS_P1;SDS_P2;PMS_P1;PMS_P2;Temp;Humidity;BMP_temperature;BMP_pressure;BME280_temperature;BME280_humidity;BME280_pressure;Samples;Min_cycle;Max_cycle;Signal;HPM_P1;HPM_P2
2023/08/01 00:00:07;;;;;;;19.30;2.80;;;;;;;23.04;100.00;99623.03;4952284;29;20238;-69
2023/08/01 00:02:34;;;;;;;21.85;3.17;;;;;;;23.15;100.00;99618.09;4951991;29;20294;-69
2023/08/01 00:05:01;;;;;;;16.92;2.60;;;;;;;22.92;100.00;99609.47;4952811;29;20218;-69
2023/08/01 00:07:29;;;;;;;21.10;2.88;;;;;;;22.94;100.00;99608.47;4952199;29;20203;-69
2023/08/01 00:09:55;;;;;;;18.90;2.83;;;;;;;23.01;100.00;99612.56;4952625;29;20261;-69
2023/08/01 00:12:22;;;;;;;19.50;2.83;;;;;;;22.99;100.00;99605.63;4952341;29;20209;-69
2023/08/01 00:14:50;;;;;;;21.45;3.45;;;;;;;22.93;100.00;99612.06;4952456;29;20553;-70
2023/08/01 00:17:17;;;;;;;16.73;2.58;;;;;;;22.90;100.00;99604.22;4952758;29;20265;-69
2023/08/01 00:19:44;;;;;;;19.50;3.03;;;;;;;22.87;100.00;99606.13;4952393;29;20213;-69
2023/08/01 00:22:11;;;;;;;15.68;2.47;;;;;;;22.95;100.00;99611.97;4903032;29;20210;-68
2023/08/01 00:24:38;;;;;;;16.88;2.63;;;;;;;23.00;100.00;99604.72;4952356;29;20235;-68
2023/08/01 00:27:08;;;;;;;21.05;3.08;;;;;;;23.02;100.00;99598.41;4952449;29;20203;-68
2023/08/01 00:29:35;;;;;;;20.13;2.88;;;;;;;22.97;100.00;99587.16;4952871;29;20203;-68
2023/08/01 00:32:07;;;;;;;19.30;2.83;;;;;;;23.06;100.00;99589.44;4952659;29;20210;-68
2023/08/01 00:34:34;;;;;;;17.02;2.58;;;;;;;23.00;100.00;99587.06;4952577;29;20198;-68
2023/08/01 00:37:00;;;;;;;18.05;2.72;;;;;;;23.01;100.00;99582.63;4952435;29;20544;-69
2023/08/01 00:39:27;;;;;;;14.45;2.30;;;;;;;23.01;100.00;99588.75;4952434;29;20675;-68
2023/08/01 00:41:54;;;;;;;18.52;2.55;;;;;;;22.84;100.00;99554.25;4952751;29;20230;-68
2023/08/01 00:44:21;;;;;;;15.98;2.38;;;;;;;22.93;100.00;99560.94;4952298;28;20250;-67
2023/08/01 00:46:48;;;;;;;20.08;3.00;;;;;;;22.97;100.00;99581.88;4952255;28;20624;-68
2023/08/01 00:49:16;;;;;;;16.27;2.45;;;;;;;22.99;100.00;99573.91;4956121;29;20217;-68
2023/08/01 00:51:44;;;;;;;19.42;2.85;;;;;;;23.00;100.00;99578.25;4956388;29;20206;-68
2023/08/01 00:54:11;;;;;;;15.98;2.60;;;;;;;22.84;100.00;99571.91;4956169;29;20199;-68
2023/08/01 00:56:38;;;;;;;21.23;3.00;;;;;;;22.88;100.00;99577.00;4956249;29;20206;-69
2023/08/01 00:59:06;;;;;;;18.15;2.72;;;;;;;22.90;100.00;99580.44;4955936;29;20249;-69
2023/08/01 01:01:32;;;;;;;17.50;2.60;;;;;;;22.83;100.00;99581.63;4954871;29;20215;-68
2023/08/01 01:04:00;;;;;;;19.52;2.92;;;;;;;22.66;100.00;99560.31;4922595;29;20238;-69
2023/08/01 01:06:34;;;;;;;19.10;3.00;;;;;;;22.85;100.00;99577.13;4956170;29;20222;-68
2023/08/01 01:09:01;;;;;;;16.27;2.63;;;;;;;22.75;100.00;99569.66;4955974;29;20227;-69
2023/08/01 01:11:27;;;;;;;17.42;2.45;;;;;;;22.72;100.00;99568.03;4956052;29;20622;-69
2023/08/01 01:13:54;;;;;;;15.43;2.38;;;;;;;22.79;100.00;99552.75;4955774;29;20207;-69
2023/08/01 01:16:21;;;;;;;12.85;2.35;;;;;;;22.70;100.00;99546.94;4955653;29;20721;-69
2023/08/01 01:18:48;;;;;;;18.00;2.53;;;;;;;22.75;100.00;99565.25;4955712;29;20215;-69
2023/08/01 01:21:16;;;;;;;18.42;2.70;;;;;;;22.58;100.00;99518.34;4955523;29;20681;-69
2023/08/01 01:23:44;;;;;;;19.63;2.92;;;;;;;22.72;100.00;99538.97;4956071;29;20234;-69
2023/08/01 01:26:12;;;;;;;22.10;3.05;;;;;;;22.70;100.00;99540.78;4955814;29;20303;-70
2023/08/01 01:28:40;;;;;;;17.05;2.72;;;;;;;22.12;100.00;99477.16;4955841;29;20202;-69
2023/08/01 01:31:07;;;;;;;14.02;2.35;;;;;;;22.57;100.00;99556.28;4955723;29;20736;-69
2023/08/01 01:33:35;;;;;;;16.90;2.38;;;;;;;22.60;100.00;99547.38;4955647;29;20359;-69
2023/08/01 01:36:02;;;;;;;13.63;2.13;;;;;;;22.55;100.00;99551.97;4955838;29;20206;-69
2023/08/01 01:38:30;;;;;;;16.45;2.50;;;;;;;22.55;100.00;99562.53;4920741;29;20235;-69
2023/08/01 01:40:57;;;;;;;15.05;2.35;;;;;;;22.32;100.00;99521.25;4955921;29;20225;-69
2023/08/01 01:43:24;;;;;;;11.95;2.08;;;;;;;22.36;100.00;99532.53;4955136;28;20357;-69
2023/08/01 01:45:50;;;;;;;14.43;2.28;;;;;;;22.40;100.00;99563.19;4955580;29;20199;-69
2023/08/01 01:48:17;;;;;;;12.68;2.20;;;;;;;22.23;100.00;99566.50;4953457;29;20209;-69
2023/08/01 01:50:44;;;;;;;10.40;1.98;;;;;;;22.11;100.00;99572.31;4937468;29;20627;-69
2023/08/01 01:53:11;;;;;;;14.98;2.53;;;;;;;22.23;100.00;99562.09;4921405;29;20661;-69
2023/08/01 01:55:39;;;;;;;11.05;1.85;;;;;;;22.26;100.00;99555.81;4955445;29;20211;-69
2023/08/01 01:58:07;;;;;;;12.68;2.00;;;;;;;22.32;100.00;99562.66;4954626;28;20207;-70
2023/08/01 02:00:33;;;;;;;12.35;2.20;;;;;;;22.36;100.00;99564.25;4905467;29;20238;-69
2023/08/01 02:03:02;;;;;;;13.00;2.20;;;;;;;22.21;100.00;99548.09;4955208;29;20218;-69
2023/08/01 02:05:29;;;;;;;11.77;2.10;;;;;;;22.29;100.00;99560.13;4955185;29;20674;-69
2023/08/01 02:07:56;;;;;;;17.63;2.60;;;;;;;22.20;100.00;99567.50;4955280;29;20207;-69
2023/08/01 02:10:23;;;;;;;10.20;1.85;;;;;;;22.06;100.00;99555.78;4954839;29;20603;-69
2023/08/01 02:12:51;;;;;;;16.27;2.33;;;;;;;21.98;100.00;99576.34;4955105;29;20207;-69
2023/08/01 02:15:18;;;;;;;15.10;2.47;;;;;;;21.94;100.00;99564.19;4954959;29;20203;-69
2023/08/01 02:17:44;;;;;;;19.63;2.78;;;;;;;22.01;100.00;99571.78;4905055;29;20214;-69
2023/08/01 02:20:12;;;;;;;14.32;2.30;;;;;;;22.01;100.00;99566.50;4954797;29;20665;-69
2023/08/01 02:22:38;;;;;;;15.13;2.35;;;;;;;22.07;100.00;99584.78;4954943;29;20202;-69
2023/08/01 02:25:06;;;;;;;14.23;2.20;;;;;;;21.98;100.00;99590.41;4954675;29;20235;-69
2023/08/01 02:27:33;;;;;;;15.55;2.28;;;;;;;21.82;100.00;99597.19;4954541;29;20229;-69
2023/08/01 02:30:01;;;;;;;11.75;1.98;;;;;;;21.95;100.00;99602.84;4953461;29;20670;-70
2023/08/01 02:32:28;;;;;;;16.35;2.40;;;;;;;22.04;100.00;99599.88;4954325;29;20213;-69
2023/08/01 02:34:55;;;;;;;18.45;2.65;;;;;;;22.20;100.00;99608.91;4954589;29;20202;-69
2023/08/01 02:37:21;;;;;;;20.67;2.95;;;;;;;22.26;100.00;99597.25;4954429;29;20199;-69
2023/08/01 02:39:48;;;;;;;7.95;1.55;;;;;;;22.27;100.00;99599.81;4954030;29;20211;-69
2023/08/01 02:42:15;;;;;;;19.75;3.00;;;;;;;22.19;100.00;99610.69;4953948;29;20202;-69
2023/08/01 02:44:42;;;;;;;19.35;2.75;;;;;;;22.03;100.00;99604.28;4953970;28;20242;-69
2023/08/01 02:47:10;;;;;;;15.57;2.45;;;;;;;21.90;100.00;99610.09;4953649;29;20211;-69
2023/08/01 02:49:37;;;;;;;15.18;2.35;;;;;;;21.82;100.00;99623.56;4954039;29;20203;-68
2023/08/01 02:52:04;;;;;;;19.30;2.80;;;;;;;21.80;100.00;99633.31;4954259;29;20658;-68
2023/08/01 02:54:31;;;;;;;14.98;2.25;;;;;;;21.74;100.00;99637.06;4954374;29;20202;-68
2023/08/01 02:56:58;;;;;;;15.55;2.40;;;;;;;21.53;100.00;99606.19;4954136;29;20195;-68
2023/08/01 02:59:25;;;;;;;11.98;1.95;;;;;;;21.62;100.00;99647.19;4953699;29;20203;-69
2023/08/01 03:01:51;;;;;;;13.10;2.17;;;;;;;21.64;100.00;99648.88;4953211;29;20289;-69
2023/08/01 03:04:19;;;;;;;12.10;1.98;;;;;;;21.67;100.00;99646.13;4953950;29;20229;-68
2023/08/01 03:06:46;;;;;;;16.25;2.47;;;;;;;21.53;100.00;99636.97;4953765;29;20195;-69
2023/08/01 03:09:13;;;;;;;12.85;2.10;;;;;;;21.51;100.00;99655.50;4953822;29;20207;-69
2023/08/01 03:11:40;;;;;;;15.25;2.42;;;;;;;21.52;100.00;99659.00;4953556;28;20198;-69
2023/08/01 03:14:06;;;;;;;19.40;2.67;;;;;;;21.47;100.00;99659.19;4953531;29;20213;-68
2023/08/01 03:16:33;;;;;;;16.45;2.55;;;;;;;21.37;100.00;99662.22;4953938;29;20221;-69
2023/08/01 03:19:04;;;;;;;24.90;2.90;;;;;;;21.32;100.00;99664.13;4953507;29;20218;-69
2023/08/01 03:21:33;;;;;;;17.38;2.50;;;;;;;21.44;100.00;99666.34;4953364;29;20239;-69
2023/08/01 03:24:00;;;;;;;17.67;2.53;;;;;;;21.37;100.00;99663.03;4953326;29;20576;-69
2023/08/01 03:26:28;;;;;;;22.38;3.05;;;;;;;21.45;100.00;99662.78;4953284;29;20199;-69
2023/08/01 03:28:55;;;;;;;20.55;2.75;;;;;;;21.64;100.00;99661.19;4950643;29;20207;-69
2023/08/01 03:31:22;;;;;;;19.15;2.75;;;;;;;21.65;100.00;99649.75;4953501;29;20237;-69
2023/08/01 03:33:49;;;;;;;20.90;2.85;;;;;;;21.72;100.00;99667.91;4919852;29;20222;-69
2023/08/01 03:36:16;;;;;;;24.55;3.33;;;;;;;21.90;100.00;99678.72;4953268;29;20206;-69
2023/08/01 03:38:44;;;;;;;21.67;2.97;;;;;;;21.83;100.00;99656.09;4953073;29;20227;-69
2023/08/01 03:41:11;;;;;;;19.88;2.83;;;;;;;21.88;100.00;99639.16;4953195;29;20227;-69
2023/08/01 03:43:37;;;;;;;21.23;3.00;;;;;;;21.92;100.00;99650.50;4953157;28;20245;-69
2023/08/01 03:46:05;;;;;;;17.70;2.63;;;;;;;22.02;100.00;99658.00;4953068;29;20203;-73
2023/08/01 03:48:31;;;;;;;18.75;2.67;;;;;;;22.14;100.00;99661.97;4953245;29;20210;-73
2023/08/01 03:51:00;;;;;;;18.88;2.83;;;;;;;22.24;100.00;99658.91;4953196;29;20207;-71
2023/08/01 03:53:27;;;;;;;20.50;2.90;;;;;;;22.72;100.00;99665.84;4919642;29;20681;-78
2023/08/01 03:55:55;;;;;;;18.45;2.65;;;;;;;23.32;100.00;99669.44;4953361;29;20563;-75
2023/08/01 03:58:21;;;;;;;20.35;2.95;;;;;;;23.68;100.00;99673.16;4953054;29;20199;-72
2023/08/01 04:00:48;;;;;;;17.48;2.70;;;;;;;23.91;100.00;99667.66;4953202;29;20210;-71
2023/08/01 04:03:15;;;;;;;21.20;3.25;;;;;;;24.19;100.00;99670.75;4953006;29;20199;-74
2023/08/01 04:05:42;;;;;;;17.27;2.63;;;;;;;24.54;98.63;99678.84;4919225;29;20219;-74
2023/08/01 04:08:09;;;;;;;23.38;3.33;;;;;;;24.96;95.17;99678.53;4934553;29;20218;-73
2023/08/01 04:10:36;;;;;;;16.65;2.50;;;;;;;25.30;90.33;99667.06;4952663;29;20637;-73
2023/08/01 04:13:04;;;;;;;20.40;2.88;;;;;;;26.03;86.24;99677.31;4952333;29;20639;-73
2023/08/01 04:15:31;;;;;;;13.70;2.47;;;;;;;26.36;83.66;99685.28;4953206;29;20214;-73
2023/08/01 04:17:57;;;;;;;20.48;3.22;;;;;;;26.46;80.65;99694.44;4952626;29;20233;-72
2023/08/01 04:20:24;;;;;;;23.02;3.30;;;;;;;26.55;80.76;99697.44;4953132;29;20222;-70
2023/08/01 04:22:51;;;;;;;17.15;2.60;;;;;;;26.74;79.56;99691.94;4952025;29;20214;-70
2023/08/01 04:25:18;;;;;;;23.23;3.28;;;;;;;27.10;78.18;99699.63;4952044;29;20653;-70
2023/08/01 04:27:44;;;;;;;19.55;2.90;;;;;;;27.48;74.88;99689.38;4952788;29;20198;-71
2023/08/01 04:30:13;;;;;;;22.13;3.17;;;;;;;27.69;73.85;99704.03;4952912;29;20203;-70
2023/08/01 04:32:40;;;;;;;22.17;3.15;;;;;;;28.23;70.30;99698.91;4951909;29;20658;-71
2023/08/01 04:35:07;;;;;;;20.27;3.00;;;;;;;28.59;66.54;99699.22;4951971;29;20206;-71
2023/08/01 04:37:34;;;;;;;17.92;2.65;;;;;;;28.89;67.03;99704.41;4949101;29;20218;-70
2023/08/01 04:40:00;;;;;;;16.67;2.40;;;;;;;29.50;63.78;99706.50;4952126;29;20305;-70
2023/08/01 04:42:28;;;;;;;17.25;2.67;;;;;;;29.90;62.32;99696.56;4952440;29;20282;-70
2023/08/01 04:44:55;;;;;;;27.40;3.65;;;;;;;30.28;57.49;99708.09;4951610;28;20238;-70
2023/08/01 04:47:23;;;;;;;18.65;3.03;;;;;;;30.68;56.82;99705.22;4952486;29;20210;-69
2023/08/01 04:49:50;;;;;;;20.85;3.00;;;;;;;30.65;55.21;99708.09;4902925;29;20218;-71
2023/08/01 04:52:17;;;;;;;17.15;2.55;;;;;;;30.26;56.50;99706.47;4952299;29;20210;-70
2023/08/01 04:54:43;;;;;;;21.80;3.05;;;;;;;30.39;57.05;99710.00;4951911;29;20210;-70
2023/08/01 04:57:10;;;;;;;17.73;2.65;;;;;;;30.35;57.45;99719.19;4951808;29;20198;-71
2023/08/01 04:59:37;;;;;;;18.98;2.97;;;;;;;30.62;55.51;99719.88;4952397;29;20218;-71
2023/08/01 05:02:04;;;;;;;24.00;4.45;;;;;;;31.25;52.86;99718.78;4951734;29;20199;-70
2023/08/01 05:04:32;;;;;;;20.90;2.95;;;;;;;31.27;52.84;99733.75;4951977;29;20238;-71
2023/08/01 05:06:59;;;;;;;15.82;2.55;;;;;;;31.32;52.61;99738.78;4952582;29;20211;-70
2023/08/01 05:09:26;;;;;;;21.73;3.10;;;;;;;31.86;50.45;99744.41;4949463;29;20233;-70
2023/08/01 05:11:52;;;;;;;20.08;2.85;;;;;;;32.35;49.51;99741.44;4951604;29;20261;-69
2023/08/01 05:14:19;;;;;;;20.88;2.97;;;;;;;32.61;47.62;99725.91;4951974;29;20624;-69
2023/08/01 05:16:46;;;;;;;19.23;2.67;;;;;;;32.82;47.52;99732.22;4951844;29;20664;-70
2023/08/01 05:19:13;;;;;;;18.05;2.70;;;;;;;33.11;46.42;99756.69;4951920;29;20214;-74
2023/08/01 05:21:41;;;;;;;20.88;3.03;;;;;;;33.09;46.44;99750.56;4902313;29;20285;-74
2023/08/01 05:24:08;;;;;;;20.67;3.05;;;;;;;33.20;45.60;99747.88;4951929;29;20214;-73
2023/08/01 05:26:35;;;;;;;20.42;2.92;;;;;;;33.28;45.10;99753.47;4951992;29;20269;-73
2023/08/01 05:29:01;;;;;;;20.65;3.42;;;;;;;32.93;46.96;99762.56;4951874;29;20229;-81
2023/08/01 05:31:28;;;;;;;17.00;2.63;;;;;;;31.87;47.88;99760.38;4952443;29;20210;-75
2023/08/01 05:33:55;;;;;;;16.45;2.63;;;;;;;31.84;48.53;99765.13;4936076;29;20214;-74
2023/08/01 05:36:21;;;;;;;19.08;2.88;;;;;;;31.40;48.51;99691.66;4956347;29;20249;-75
2023/08/01 05:38:50;;;;;;;23.10;3.25;;;;;;;31.73;49.13;99762.44;4955054;29;20210;-76
2023/08/01 05:41:16;;;;;;;17.45;2.67;;;;;;;31.52;50.65;99759.56;4952627;29;20214;-77
2023/08/01 05:43:43;;;;;;;25.15;3.50;;;;;;;30.97;51.09;99744.94;4960797;28;20244;-75
2023/08/01 05:46:11;;;;;;;21.52;2.92;;;;;;;30.49;54.18;99735.16;4950415;29;20225;-75
2023/08/01 05:48:37;;;;;;;22.48;3.15;;;;;;;30.28;56.25;99742.88;4970951;28;20217;-70
2023/08/01 05:51:04;;;;;;;25.27;3.40;;;;;;;29.92;56.52;99754.34;4974253;28;20235;-71
2023/08/01 05:53:31;;;;;;;22.25;3.05;;;;;;;30.12;58.07;99749.41;4974078;28;20213;-71
2023/08/01 05:55:59;;;;;;;21.27;3.20;;;;;;;29.67;56.02;99756.97;4974125;28;20221;-70
2023/08/01 05:58:26;;;;;;;27.13;3.20;;;;;;;30.17;54.76;99753.47;4974061;28;20205;-70
2023/08/01 06:00:53;;;;;;;27.95;3.38;;;;;;;30.35;54.64;99759.34;4974180;28;20209;-70
2023/08/01 06:03:20;;;;;;;25.13;3.00;;;;;;;30.20;54.47;99741.69;4974051;28;20198;-70
2023/08/01 06:05:46;;;;;;;27.65;3.35;;;;;;;29.94;55.76;99723.00;4956043;28;20236;-70
2023/08/01 06:08:15;;;;;;;24.52;2.92;;;;;;;29.84;55.71;99743.31;4974117;28;20197;-70
2023/08/01 06:10:42;;;;;;;28.23;3.17;;;;;;;29.62;56.28;99745.72;4974179;28;20198;-70
2023/08/01 06:13:10;;;;;;;29.05;3.15;;;;;;;29.46;54.91;99750.41;4973872;28;20567;-70
2023/08/01 06:15:37;;;;;;;30.17;3.40;;;;;;;28.59;61.98;99749.91;4955918;28;20589;-70
2023/08/01 06:18:04;;;;;;;27.27;3.20;;;;;;;28.54;54.22;99752.00;4973960;28;20194;-70
2023/08/01 06:20:30;;;;;;;30.15;3.50;;;;;;;28.29;51.39;99741.22;4973863;28;20198;-70
2023/08/01 06:22:57;;;;;;;23.58;2.92;;;;;;;27.74;50.96;99760.59;4973710;28;20206;-71
2023/08/01 06:25:24;;;;;;;25.23;3.10;;;;;;;27.34;50.96;99739.91;4973643;28;20229;-70
2023/08/01 06:27:51;;;;;;;23.85;2.92;;;;;;;27.25;51.76;99761.75;4973540;28;20202;-71
2023/08/01 06:30:19;;;;;;;26.10;3.13;;;;;;;27.09;53.84;99744.00;4973561;28;20696;-70
2023/08/01 06:32:46;;;;;;;28.13;3.33;;;;;;;27.08;54.53;99763.56;4973527;28;20198;-71
2023/08/01 06:35:12;;;;;;;27.73;3.25;;;;;;;26.89;57.83;99760.28;4973594;28;20206;-71
2023/08/01 06:37:39;;;;;;;27.95;3.30;;;;;;;26.61;60.39;99752.09;4973614;28;20206;-70
2023/08/01 06:40:08;;;;;;;27.13;3.25;;;;;;;26.61;60.64;99754.75;4973469;28;20198;-70
2023/08/01 06:42:35;;;;;;;29.48;3.45;;;;;;;26.60;61.71;99750.38;4939387;28;20379;-71
2023/08/01 06:45:02;;;;;;;24.95;3.05;;;;;;;26.48;61.50;99754.56;4957029;28;20637;-70
2023/08/01 06:47:30;;;;;;;26.50;3.35;;;;;;;26.57;62.75;99740.78;4920710;29;20198;-70
2023/08/01 06:49:57;;;;;;;21.30;3.03;;;;;;;26.43;65.42;99713.25;4954145;29;20203;-70
2023/08/01 06:52:23;;;;;;;30.88;3.53;;;;;;;26.72;64.86;99735.53;4954161;29;20211;-70
2023/08/01 06:54:50;;;;;;;20.10;2.78;;;;;;;26.84;65.18;99748.16;4953832;29;20202;-70
2023/08/01 06:57:17;;;;;;;23.45;3.08;;;;;;;26.67;68.85;99742.91;4904351;29;20203;-70
2023/08/01 06:59:44;;;;;;;18.52;2.65;;;;;;;26.74;66.31;99734.50;4953854;29;20209;-70
2023/08/01 07:02:10;;;;;;;23.25;3.03;;;;;;;26.91;67.42;99725.56;4920228;29;20205;-70
2023/08/01 07:04:39;;;;;;;19.33;2.72;;;;;;;26.90;68.96;99740.69;4920139;29;20532;-70
2023/08/01 07:07:05;;;;;;;22.52;3.35;;;;;;;27.05;71.84;99739.81;4953922;29;20626;-70
2023/08/01 07:09:32;;;;;;;17.58;2.45;;;;;;;26.82;70.77;99737.63;4953803;29;20206;-70
2023/08/01 07:11:59;;;;;;;21.90;2.85;;;;;;;26.90;71.73;99738.03;4953835;29;20207;-70
2023/08/01 07:14:26;;;;;;;23.80;3.03;;;;;;;26.89;72.83;99732.81;4953719;29;20203;-70
2023/08/01 07:16:53;;;;;;;20.98;2.90;;;;;;;27.02;72.77;99740.00;4953687;29;20203;-70
2023/08/01 07:19:20;;;;;;;20.67;2.78;;;;;;;27.03;73.50;99741.72;4953397;29;20261;-70
2023/08/01 07:21:49;;;;;;;19.27;2.70;;;;;;;26.97;75.02;99736.72;4953496;29;20211;-70
2023/08/01 07:24:16;;;;;;;23.13;2.97;;;;;;;27.08;73.54;99736.97;4953419;29;20198;-70
2023/08/01 07:26:42;;;;;;;21.73;2.92;;;;;;;27.13;73.90;99719.88;4953228;29;20238;-70
2023/08/01 07:29:11;;;;;;;24.98;3.20;;;;;;;27.26;75.09;99728.84;4953257;29;20199;-70
2023/08/01 07:31:37;;;;;;;19.00;2.67;;;;;;;27.44;73.89;99731.28;4953481;29;20242;-70
2023/08/01 07:34:04;;;;;;;22.17;3.20;;;;;;;27.37;72.98;99715.75;4953160;29;20207;-70
2023/08/01 07:36:31;;;;;;;18.30;2.63;;;;;;;27.25;75.47;99720.03;4953098;29;20206;-70
2023/08/01 07:38:59;;;;;;;20.48;2.80;;;;;;;27.35;74.05;99731.84;4953247;29;20206;-70
2023/08/01 07:41:26;;;;;;;18.85;2.60;;;;;;;27.44;73.95;99731.28;4953265;29;20579;-71
2023/08/01 07:43:53;;;;;;;21.30;2.88;;;;;;;27.30;74.16;99717.06;4953164;28;20332;-69
2023/08/01 07:46:19;;;;;;;14.27;2.08;;;;;;;27.33;74.83;99717.72;4919751;29;20257;-70
2023/08/01 07:48:46;;;;;;;21.50;2.83;;;;;;;27.17;75.85;99721.41;4919430;29;20211;-71
2023/08/01 07:51:13;;;;;;;19.40;2.70;;;;;;;27.27;74.54;99717.25;4952962;29;20282;-70
2023/08/01 07:53:40;;;;;;;22.90;3.15;;;;;;;27.14;75.09;99710.94;4953026;29;20202;-70
2023/08/01 07:56:08;;;;;;;20.80;2.78;;;;;;;27.27;76.33;99709.25;4952985;28;20207;-70
2023/08/01 07:58:36;;;;;;;22.30;2.90;;;;;;;26.94;77.74;99715.59;4903282;29;20222;-71
2023/08/01 08:01:04;;;;;;;22.08;3.03;;;;;;;26.96;77.46;99703.09;4952741;29;20203;-71
2023/08/01 08:03:31;;;;;;;24.17;3.10;;;;;;;26.89;79.80;99707.06;4952763;29;20207;-70
2023/08/01 08:05:58;;;;;;;24.02;3.05;;;;;;;26.99;77.84;99697.59;4952713;29;20242;-70
2023/08/01 08:08:25;;;;;;;19.80;2.75;;;;;;;27.24;78.82;99691.66;4952526;29;20203;-70
2023/08/01 08:10:52;;;;;;;17.65;2.50;;;;;;;27.56;79.04;99703.09;4934817;29;20210;-71
2023/08/01 08:13:20;;;;;;;21.42;2.92;;;;;;;27.71;77.57;99695.97;4952548;29;20202;-71
2023/08/01 08:15:47;;;;;;;23.90;3.03;;;;;;;27.72;78.52;99701.19;4952445;29;20211;-70
2023/08/01 08:18:14;;;;;;;22.55;2.97;;;;;;;27.48;79.68;99705.34;4952567;29;20218;-71
2023/08/01 08:20:45;;;;;;;21.45;2.85;;;;;;;27.47;79.65;99699.16;4952410;29;20199;-70
2023/08/01 08:23:13;;;;;;;22.63;2.92;;;;;;;27.42;79.64;99690.56;4952527;29;20206;-71
2023/08/01 08:25:40;;;;;;;22.88;2.97;;;;;;;27.48;78.97;99706.22;4952305;29;20591;-70
2023/08/01 08:28:08;;;;;;;23.15;2.97;;;;;;;27.42;80.54;99706.56;4952624;29;20210;-70
2023/08/01 08:30:37;;;;;;;19.85;2.72;;;;;;;27.35;80.90;99699.03;4952274;29;20208;-70
2023/08/01 08:33:06;;;;;;;20.25;2.83;;;;;;;27.48;81.68;99702.69;4952482;29;20199;-70
2023/08/01 08:35:33;;;;;;;20.77;2.85;;;;;;;27.54;80.52;99697.84;4902862;29;20261;-71
2023/08/01 08:38:03;;;;;;;24.13;2.97;;;;;;;27.63;79.61;99685.78;4952298;29;20206;-70
2023/08/01 08:40:34;;;;;;;22.42;3.03;;;;;;;27.79;77.88;99699.84;4952434;29;20287;-70
2023/08/01 08:43:03;;;;;;;23.83;3.15;;;;;;;27.98;77.82;99697.78;4952231;29;20318;-70
2023/08/01 08:45:33;;;;;;;22.45;3.10;;;;;;;27.92;74.93;99665.31;4952290;29;20299;-71
2023/08/01 08:48:02;;;;;;;24.55;3.28;;;;;;;28.13;74.88;99689.78;4952270;29;20684;-71
2023/08/01 08:50:31;;;;;;;25.27;3.28;;;;;;;28.18;75.13;99685.03;4952148;29;20724;-71
2023/08/01 08:52:59;;;;;;;25.73;3.28;;;;;;;28.03;74.40;99650.38;4952063;29;20237;-70
2023/08/01 08:55:27;;;;;;;22.30;2.83;;;;;;;28.35;75.24;99676.81;4952302;29;20202;-71
2023/08/01 08:57:54;;;;;;;19.60;2.75;;;;;;;28.36;72.42;99681.19;4952354;29;20214;-72
2023/08/01 09:00:21;;;;;;;22.15;3.00;;;;;;;28.22;73.08;99675.91;4951966;29;20198;-72
2023/08/01 09:02:48;;;;;;;21.27;2.78;;;;;;;28.13;73.57;99679.13;4918494;29;20203;-72
2023/08/01 09:05:17;;;;;;;22.25;2.90;;;;;;;28.07;74.03;99673.22;4951943;29;20209;-72
2023/08/01 09:07:48;;;;;;;24.25;3.22;;;;;;;28.11;73.53;99667.72;4952066;28;20214;-72
2023/08/01 09:10:14;;;;;;;24.70;3.42;;;;;;;28.09;73.65;99665.13;4955725;29;20206;-73
2023/08/01 09:12:41;;;;;;;23.50;3.03;;;;;;;28.10;74.77;99666.88;4906623;29;20206;-72
2023/08/01 09:15:10;;;;;;;23.05;2.97;;;;;;;28.15;74.11;99670.06;4955796;29;20207;-72
2023/08/01 09:17:37;;;;;;;28.38;3.65;;;;;;;28.29;73.58;99672.72;4955607;29;20217;-76
2023/08/01 09:20:08;;;;;;;22.73;3.00;;;;;;;28.29;74.56;99667.38;4954026;29;20214;-74
2023/08/01 09:22:44;;;;;;;21.88;2.80;;;;;;;28.58;74.12;99665.50;4955082;29;20207;-74
2023/08/01 09:25:12;;;;;;;20.73;2.80;;;;;;;28.66;71.09;99652.50;4955795;29;20237;-75
2023/08/01 09:27:38;;;;;;;23.75;2.97;;;;;;;28.33;71.08;99662.69;4955170;29;20313;-75
2023/08/01 09:30:07;;;;;;;21.88;3.05;;;;;;;28.29;73.06;99634.53;4942123;29;20211;-76
2023/08/01 09:32:34;;;;;;;22.58;3.03;;;;;;;28.59;71.66;99653.88;4955667;29;20229;-74
2023/08/01 09:35:01;;;;;;;17.90;2.47;;;;;;;28.71;71.65;99644.25;4954972;29;20619;-74
2023/08/01 09:37:38;;;;;;;24.17;3.45;;;;;;;28.85;71.57;99650.38;4955206;29;20218;-73
2023/08/01 09:40:08;;;;;;;28.38;3.78;;;;;;;28.52;71.79;99625.88;4954939;29;20289;-75
2023/08/01 09:42:39;;;;;;;21.55;2.92;;;;;;;28.64;71.84;99640.22;4955163;29;20206;-72
2023/08/01 09:45:12;;;;;;;22.23;3.00;;;;;;;28.84;72.08;99659.31;4955131;28;20333;-73
2023/08/01 09:47:39;;;;;;;19.45;2.75;;;;;;;28.71;70.90;99649.56;4955007;29;20298;-73
2023/08/01 09:50:06;;;;;;;24.23;3.55;;;;;;;28.74;73.12;99650.22;4955244;29;20277;-74
2023/08/01 09:52:34;;;;;;;20.65;3.05;;;;;;;28.45;73.19;99603.22;4955138;29;20207;-74
2023/08/01 09:55:00;;;;;;;23.30;3.15;;;;;;;28.84;73.70;99631.78;4955176;29;20217;-80
2023/08/01 09:57:30;;;;;;;18.23;3.20;;;;;;;29.14;73.63;99629.72;4955438;29;20599;-77
2023/08/01 09:59:57;;;;;;;17.75;2.55;;;;;;;29.24;74.89;99637.94;4955487;29;20206;-76
2023/08/01 10:02:25;;;;;;;17.33;2.58;;;;;;;28.97;70.22;99582.78;4949050;29;20753;-78
2023/08/01 10:04:54;;;;;;;25.17;3.33;;;;;;;29.21;70.42;99625.66;4953216;29;20202;-70
2023/08/01 10:07:26;;;;;;;17.40;2.67;;;;;;;29.12;68.53;99601.38;4949994;29;20800;-71
2023/08/01 10:09:55;;;;;;;24.30;3.35;;;;;;;29.20;69.33;99620.41;4952781;29;20289;-71
2023/08/01 10:12:24;;;;;;;18.90;2.72;;;;;;;29.34;69.06;99612.31;4953188;29;20203;-70
2023/08/01 10:14:53;;;;;;;23.92;3.20;;;;;;;29.55;67.44;99624.19;4952601;29;20206;-71
2023/08/01 10:17:22;;;;;;;21.17;2.90;;;;;;;29.42;66.70;99612.66;4952679;29;20558;-70
2023/08/01 10:19:50;;;;;;;22.70;3.20;;;;;;;29.50;65.35;99621.00;4951218;28;20541;-71
2023/08/01 10:22:18;;;;;;;18.85;2.72;;;;;;;29.53;62.91;99623.44;4953368;29;20238;-71
2023/08/01 10:24:46;;;;;;;22.45;3.05;;;;;;;29.52;65.25;99624.41;4953906;29;20210;-71
2023/08/01 10:27:14;;;;;;;25.52;3.83;;;;;;;29.60;64.83;99626.53;4953367;29;20234;-71
2023/08/01 10:29:41;;;;;;;17.98;2.75;;;;;;;29.53;64.57;99604.75;4936140;29;20640;-71
2023/08/01 10:32:10;;;;;;;18.30;3.05;;;;;;;29.61;65.26;99605.03;4953781;29;20210;-71
2023/08/01 10:34:37;;;;;;;23.10;3.13;;;;;;;29.50;64.89;99599.63;4953982;29;20215;-71
2023/08/01 10:37:05;;;;;;;20.33;2.90;;;;;;;29.61;64.52;99596.19;4953599;29;20202;-71
2023/08/01 10:39:32;;;;;;;21.45;2.95;;;;;;;29.80;64.53;99593.91;4953710;29;20202;-72
2023/08/01 10:42:00;;;;;;;22.08;3.08;;;;;;;29.99;63.82;99581.81;4953921;29;20593;-71
2023/08/01 10:44:28;;;;;;;22.20;3.05;;;;;;;30.16;62.65;99583.25;4964749;28;20245;-72
2023/08/01 10:46:56;;;;;;;20.05;2.78;;;;;;;29.79;64.22;99579.66;4972810;28;20316;-72
2023/08/01 10:49:36;;;;;;;21.80;2.97;;;;;;;29.85;64.00;99579.28;4972763;28;20601;-71
2023/08/01 10:52:04;;;;;;;21.90;3.10;;;;;;;29.94;64.10;99573.25;4972434;28;20555;-72
2023/08/01 10:54:32;;;;;;;20.23;2.95;;;;;;;29.98;61.73;99573.88;4973012;28;20699;-72
2023/08/01 10:56:59;;;;;;;21.67;3.08;;;;;;;29.98;61.62;99569.41;4972482;28;20201;-72
2023/08/01 10:59:26;;;;;;;22.42;3.13;;;;;;;30.10;61.19;99564.13;4938866;28;20751;-72
2023/08/01 11:01:55;;;;;;;17.25;2.65;;;;;;;30.13;60.67;99569.25;4972391;28;20268;-72
2023/08/01 11:04:23;;;;;;;23.02;3.13;;;;;;;29.96;59.93;99552.63;4954840;28;20206;-72
2023/08/01 11:06:53;;;;;;;18.05;2.65;;;;;;;30.11;57.49;99568.50;4972362;28;20230;-72
2023/08/01 11:09:21;;;;;;;22.85;3.08;;;;;;;30.06;57.58;99566.16;4972558;28;20229;-72
2023/08/01 11:11:51;;;;;;;20.13;2.90;;;;;;;30.07;56.88;99545.63;4972383;28;20194;-71
2023/08/01 11:14:20;;;;;;;18.63;2.75;;;;;;;30.18;57.99;99543.03;4972413;28;20206;-70
2023/08/01 11:16:48;;;;;;;19.98;3.03;;;;;;;30.41;57.31;99540.34;4972430;28;20205;-71
2023/08/01 11:19:22;;;;;;;16.80;2.72;;;;;;;30.55;56.67;99539.31;4972059;28;20202;-71
2023/08/01 11:21:51;;;;;;;20.13;3.25;;;;;;;30.62;55.95;99528.97;4972235;28;20197;-71